Terminal Aerodrome Forecast
Issued by NWS

Home | Current Version | Previous Version | Text Only | Print | Product List | Glossary On
Versions: 1 2 3 4 5 6 7 8 9 10 11 12 13 14 15 16 17 18 19 20 21
000
FTUS46 KEKA 291227 AAA
TAFCEC
TAF AMD
KCEC 291227Z 2912/3012 18015KT 6SM BR VCSH SCT009 BKN020 BKN030
     FM291700 18012KT P6SM -SHRA SCT015 SCT040
     FM300000 17012KT 5SM BR SCT004 OVC010=

USA.gov is the U.S. government's official web portal to all federal, state and local government web resources and services.